createdAt,value
2023-05-18T00:02:21.495Z,81.56
2023-05-18T00:04:49.268Z,81.65
2023-05-18T00:07:17.161Z,81.60
2023-05-18T00:09:44.858Z,81.76
2023-05-18T00:12:14.019Z,81.90
2023-05-18T00:14:41.726Z,81.21
2023-05-18T00:17:09.622Z,81.37
2023-05-18T00:19:37.339Z,81.32
2023-05-18T00:22:07.735Z,81.69
2023-05-18T00:24:36.940Z,81.68
2023-05-18T00:27:05.050Z,81.53
2023-05-18T00:29:34.642Z,81.54
2023-05-18T00:32:02.593Z,81.45
2023-05-18T00:34:30.990Z,81.40
2023-05-18T00:36:58.829Z,81.38
2023-05-18T00:39:26.626Z,81.44
2023-05-18T00:41:54.489Z,81.49
2023-05-18T00:44:22.143Z,81.80
2023-05-18T00:46:51.126Z,81.80
2023-05-18T00:49:19.165Z,81.84
2023-05-18T00:51:47.598Z,81.83
2023-05-18T00:54:16.120Z,81.80
2023-05-18T00:56:46.751Z,82.12
2023-05-18T00:59:15.609Z,81.83
2023-05-18T01:01:46.181Z,82.06
2023-05-18T01:04:15.542Z,82.01
2023-05-18T01:06:43.867Z,81.84
2023-05-18T01:09:13.592Z,81.95
2023-05-18T01:11:57.315Z,82.14
2023-05-18T01:14:30.738Z,82.06
2023-05-18T01:17:07.401Z,82.25
2023-05-18T01:20:07.085Z,82.03
2023-05-18T01:22:46.139Z,81.96
2023-05-18T01:25:19.866Z,82.06
2023-05-18T01:27:51.472Z,81.87
2023-05-18T01:30:19.797Z,82.00
2023-05-18T01:32:47.771Z,81.82
2023-05-18T01:35:15.486Z,81.96
2023-05-18T01:37:43.419Z,82.04
2023-05-18T01:40:13.047Z,82.31
2023-05-18T01:42:48.055Z,81.70
2023-05-18T01:45:23.254Z,81.92
2023-05-18T01:47:57.570Z,82.26
2023-05-18T01:50:32.266Z,82.03
2023-05-18T01:53:13.569Z,82.17
2023-05-18T01:55:42.873Z,82.03
2023-05-18T01:58:13.427Z,82.24
2023-05-18T02:00:43.307Z,82.16
2023-05-18T02:03:13.217Z,82.05
2023-05-18T02:05:41.313Z,81.93
2023-05-18T02:08:09.464Z,82.32
2023-05-18T02:10:37.379Z,82.06
2023-05-18T02:13:08.139Z,82.07
2023-05-18T02:15:36.335Z,82.27
2023-05-18T02:18:05.725Z,82.15
2023-05-18T02:20:33.646Z,81.99
2023-05-18T02:23:01.524Z,81.85
2023-05-18T02:25:29.571Z,81.98
2023-05-18T02:27:58.373Z,81.82
2023-05-18T02:30:26.036Z,81.54
2023-05-18T02:32:53.895Z,81.75
2023-05-18T02:35:22.974Z,81.71
2023-05-18T02:37:50.869Z,81.38
2023-05-18T02:40:18.811Z,81.47
2023-05-18T02:42:46.618Z,81.47
2023-05-18T02:45:14.487Z,81.53
2023-05-18T02:47:44.580Z,81.22
2023-05-18T02:50:12.610Z,81.47
2023-05-18T02:52:45.332Z,81.47
2023-05-18T02:55:14.252Z,81.44
2023-05-18T02:57:57.252Z,81.19
2023-05-18T03:00:39.273Z,81.10
2023-05-18T03:03:07.107Z,81.08
2023-05-18T03:05:34.914Z,81.22
2023-05-18T03:08:03.977Z,81.37
2023-05-18T03:10:33.788Z,81.08
2023-05-18T03:13:01.519Z,81.31
2023-05-18T03:15:31.663Z,81.31
2023-05-18T03:18:00.671Z,81.09
2023-05-18T03:20:29.916Z,81.47
2023-05-18T03:22:57.599Z,81.60
2023-05-18T03:25:27.171Z,81.22
2023-05-18T03:27:55.351Z,81.14
2023-05-18T03:30:23.600Z,81.35
2023-05-18T03:32:51.763Z,81.61
2023-05-18T03:35:19.484Z,81.42
2023-05-18T03:37:47.269Z,81.62
2023-05-18T03:40:17.023Z,81.69
2023-05-18T03:42:47.659Z,81.69
2023-05-18T03:45:15.422Z,81.66
2023-05-18T03:47:44.857Z,81.36
2023-05-18T03:50:13.933Z,81.68
2023-05-18T03:52:44.549Z,81.39
2023-05-18T03:55:12.387Z,81.16
2023-05-18T03:57:40.472Z,81.22
2023-05-18T04:00:13.021Z,81.18
2023-05-18T04:02:46.722Z,81.32
2023-05-18T04:05:18.593Z,81.65
2023-05-18T04:07:47.548Z,81.39
2023-05-18T04:10:17.142Z,81.41
2023-05-18T04:12:44.940Z,81.34
2023-05-18T04:15:14.665Z,81.31
2023-05-18T04:17:45.577Z,81.19
2023-05-18T04:20:14.480Z,81.11
2023-05-18T04:22:46.471Z,80.96
2023-05-18T04:25:15.172Z,80.76
2023-05-18T04:27:45.359Z,80.74
2023-05-18T04:30:15.233Z,80.49
2023-05-18T04:32:43.840Z,80.73
2023-05-18T04:35:12.668Z,80.93
2023-05-18T04:37:41.600Z,80.72
2023-05-18T04:40:14.286Z,80.40
2023-05-18T04:42:45.352Z,80.68
2023-05-18T04:45:17.910Z,80.70
2023-05-18T04:47:47.164Z,80.54
2023-05-18T04:50:16.923Z,79.98
2023-05-18T04:52:48.125Z,80.38
2023-05-18T04:55:23.066Z,80.36
2023-05-18T04:57:53.854Z,80.13
2023-05-18T05:00:24.090Z,79.97
2023-05-18T05:02:52.165Z,80.23
2023-05-18T05:05:20.278Z,80.26
2023-05-18T05:07:47.991Z,80.45
2023-05-18T05:10:15.691Z,80.54
2023-05-18T05:12:43.646Z,80.08
2023-05-18T05:15:12.135Z,79.66
2023-05-18T05:17:41.583Z,79.84
2023-05-18T05:20:10.576Z,79.56
2023-05-18T05:22:38.503Z,79.96
2023-05-18T05:25:10.122Z,80.05
2023-05-18T05:27:39.338Z,80.49
2023-05-18T05:30:08.486Z,80.26
2023-05-18T05:32:37.840Z,80.34
2023-05-18T05:35:09.587Z,79.97
2023-05-18T05:37:37.567Z,80.38
2023-05-18T05:40:07.700Z,80.47
2023-05-18T05:42:41.683Z,79.86
2023-05-18T05:45:10.256Z,79.63
2023-05-18T05:47:45.867Z,79.82
2023-05-18T05:50:15.820Z,78.85
2023-05-18T05:52:44.497Z,79.60
2023-05-18T05:55:12.541Z,79.72
2023-05-18T05:57:42.721Z,79.46
2023-05-18T06:00:12.763Z,79.16
2023-05-18T06:02:49.759Z,78.60
2023-05-18T06:05:26.714Z,78.36
2023-05-18T06:07:56.205Z,78.02
2023-05-18T06:10:24.088Z,77.56
2023-05-18T06:12:52.089Z,77.52
2023-05-18T06:15:21.092Z,77.68
2023-05-18T06:17:49.167Z,76.90
2023-05-18T06:20:17.539Z,75.83
2023-05-18T06:22:46.760Z,76.06
2023-05-18T06:25:24.249Z,76.74
2023-05-18T06:28:24.667Z,76.14
2023-05-18T06:31:01.324Z,75.31
2023-05-18T06:33:32.372Z,74.66
2023-05-18T06:36:00.168Z,75.23
2023-05-18T06:38:29.226Z,75.10
2023-05-18T06:40:57.039Z,75.13
2023-05-18T06:43:26.841Z,73.95
2023-05-18T06:46:04.290Z,73.54
2023-05-18T06:48:39.221Z,73.12
2023-05-18T06:51:07.930Z,72.83
2023-05-18T06:53:36.966Z,73.21
2023-05-18T06:56:05.734Z,73.02
2023-05-18T06:58:34.641Z,72.09
2023-05-18T07:01:05.455Z,72.03
2023-05-18T07:03:33.664Z,72.30
2023-05-18T07:06:01.916Z,71.61
2023-05-18T07:08:29.600Z,70.38
2023-05-18T07:10:59.060Z,71.67
2023-05-18T07:13:26.971Z,71.26
2023-05-18T07:15:54.634Z,69.44
2023-05-18T07:18:22.600Z,68.71
2023-05-18T07:20:50.365Z,69.28
2023-05-18T07:23:18.006Z,69.56
2023-05-18T07:25:45.654Z,69.15
2023-05-18T07:28:15.144Z,68.19
2023-05-18T07:30:42.764Z,66.89
2023-05-18T07:33:10.446Z,67.07
2023-05-18T07:35:38.089Z,67.49
2023-05-18T07:38:05.745Z,65.19
2023-05-18T07:40:33.410Z,65.71
2023-05-18T07:43:01.212Z,65.25
2023-05-18T07:45:30.732Z,66.98
2023-05-18T07:47:58.756Z,65.49
2023-05-18T07:50:26.731Z,64.92
2023-05-18T07:52:54.493Z,64.08
2023-05-18T07:55:22.150Z,64.75
2023-05-18T07:57:49.837Z,64.54
2023-05-18T08:00:19.364Z,63.40
2023-05-18T08:02:48.521Z,62.59
2023-05-18T08:05:16.629Z,62.68
2023-05-18T08:07:44.283Z,63.14
2023-05-18T08:10:12.243Z,62.78
2023-05-18T08:12:39.890Z,61.98
2023-05-18T08:15:09.410Z,60.40
2023-05-18T08:17:37.083Z,61.57
2023-05-18T08:20:08.465Z,60.05
2023-05-18T08:22:36.273Z,59.95
2023-05-18T08:25:04.212Z,59.65
2023-05-18T08:27:31.963Z,58.39
2023-05-18T08:29:59.593Z,57.78
2023-05-18T08:32:27.739Z,57.95
2023-05-18T08:34:55.595Z,58.70
2023-05-18T08:37:29.058Z,59.81
2023-05-18T08:39:56.922Z,57.98
2023-05-18T08:42:48.499Z,58.39
2023-05-18T08:45:23.621Z,57.54
2023-05-18T08:47:51.973Z,56.77
2023-05-18T08:50:24.320Z,57.59
2023-05-18T08:52:57.270Z,56.73
2023-05-18T08:55:25.047Z,57.03
2023-05-18T08:57:56.698Z,55.79
2023-05-18T09:00:24.958Z,56.04
2023-05-18T09:02:53.196Z,56.16
2023-05-18T09:05:21.879Z,54.59
2023-05-18T09:07:51.052Z,54.62
2023-05-18T09:10:20.081Z,53.52
2023-05-18T09:12:48.215Z,54.42
2023-05-18T09:15:17.558Z,53.62
2023-05-18T09:17:45.347Z,53.01
2023-05-18T09:20:13.379Z,51.34
2023-05-18T09:22:41.261Z,51.18
2023-05-18T09:25:10.998Z,52.80
2023-05-18T09:27:40.146Z,54.08
2023-05-18T09:30:11.995Z,52.25
2023-05-18T09:32:40.280Z,52.43
2023-05-18T09:35:09.255Z,53.26
2023-05-18T09:37:37.173Z,53.67
2023-05-18T09:40:06.642Z,54.44
2023-05-18T09:42:38.780Z,54.34
2023-05-18T09:45:17.536Z,55.99
2023-05-18T09:47:45.401Z,55.41
2023-05-18T09:50:14.415Z,55.33
2023-05-18T09:52:43.686Z,55.87
2023-05-18T09:55:11.865Z,55.06
2023-05-18T09:57:41.634Z,55.30
2023-05-18T10:00:12.698Z,54.92
2023-05-18T10:02:42.014Z,54.15
2023-05-18T10:05:20.413Z,55.09
2023-05-18T10:07:48.598Z,55.17
2023-05-18T10:10:20.034Z,56.12
2023-05-18T10:12:48.493Z,55.12
2023-05-18T10:15:19.707Z,53.97
2023-05-18T10:17:49.026Z,53.11
2023-05-18T10:20:19.382Z,54.56
2023-05-18T10:22:49.127Z,53.41
2023-05-18T10:25:20.438Z,53.65
2023-05-18T10:27:50.661Z,54.29
2023-05-18T10:30:21.967Z,53.82
2023-05-18T10:32:50.200Z,54.98
2023-05-18T10:35:19.403Z,53.93
2023-05-18T10:37:48.861Z,54.72
2023-05-18T10:40:18.802Z,53.33
2023-05-18T10:42:47.506Z,53.59
2023-05-18T10:45:16.704Z,54.21
2023-05-18T10:47:45.941Z,54.60
2023-05-18T10:50:14.388Z,55.19
2023-05-18T10:52:42.734Z,54.48
2023-05-18T10:55:10.687Z,53.60
2023-05-18T10:57:41.771Z,54.28
2023-05-18T11:00:10.960Z,55.23
2023-05-18T11:02:42.881Z,55.42
2023-05-18T11:05:13.274Z,56.45
2023-05-18T11:07:41.558Z,56.08
2023-05-18T11:10:11.863Z,55.57
2023-05-18T11:12:41.449Z,56.04
2023-05-18T11:15:10.837Z,56.42
2023-05-18T11:17:38.531Z,57.05
2023-05-18T11:20:15.512Z,56.42
2023-05-18T11:22:48.465Z,56.36
2023-05-18T11:25:43.385Z,56.50
2023-05-18T11:28:13.741Z,54.71
2023-05-18T11:30:52.312Z,55.04
2023-05-18T11:33:25.595Z,54.45
2023-05-18T11:36:03.396Z,54.97
2023-05-18T11:38:48.457Z,55.21
2023-05-18T11:41:33.776Z,54.38
2023-05-18T11:44:09.827Z,54.45
2023-05-18T11:46:37.877Z,55.36
2023-05-18T11:49:06.104Z,54.50
2023-05-18T11:51:35.400Z,55.53
2023-05-18T11:54:04.152Z,55.47
2023-05-18T11:56:33.538Z,56.55
2023-05-18T11:59:13.856Z,57.00
2023-05-18T12:01:42.782Z,56.83
2023-05-18T12:04:11.311Z,56.45
2023-05-18T12:06:40.450Z,55.54
2023-05-18T12:09:09.018Z,56.19
2023-05-18T12:11:37.668Z,54.98
2023-05-18T12:14:06.966Z,55.72
2023-05-18T12:16:37.221Z,55.87
2023-05-18T12:19:05.180Z,56.96
2023-05-18T12:21:37.117Z,57.25
2023-05-18T12:24:06.834Z,57.25
2023-05-18T12:26:34.953Z,56.46
2023-05-18T12:29:02.985Z,57.14
2023-05-18T12:31:31.595Z,56.71
2023-05-18T12:33:59.683Z,56.38
2023-05-18T12:36:27.376Z,56.53
2023-05-18T12:38:55.260Z,55.61
2023-05-18T12:41:26.440Z,55.77
2023-05-18T12:43:54.955Z,55.89
2023-05-18T12:46:24.024Z,57.24
2023-05-18T12:49:01.445Z,56.43
2023-05-18T12:51:35.050Z,57.33
2023-05-18T12:54:03.504Z,57.08
2023-05-18T12:57:01.501Z,57.68
2023-05-18T12:59:29.940Z,57.78
2023-05-18T13:01:59.034Z,58.46
2023-05-18T13:04:34.991Z,57.01
2023-05-18T13:07:02.914Z,56.76
2023-05-18T13:09:30.562Z,56.77
2023-05-18T13:14:38.833Z,57.66
2023-05-18T13:17:06.717Z,57.20
2023-05-18T13:19:36.630Z,56.90
2023-05-18T13:22:04.379Z,55.55
2023-05-18T13:24:32.089Z,55.63
2023-05-18T13:26:59.708Z,55.62
2023-05-18T13:29:28.778Z,55.28
2023-05-18T13:31:56.451Z,56.55
2023-05-18T13:34:24.252Z,55.10
2023-05-18T13:36:52.003Z,54.51
2023-05-18T13:39:19.816Z,54.45
2023-05-18T13:41:47.437Z,53.42
2023-05-18T13:44:16.065Z,54.47
2023-05-18T13:46:45.126Z,53.75
2023-05-18T13:49:13.345Z,54.94
2023-05-18T13:51:41.361Z,55.65
2023-05-18T13:54:09.125Z,53.95
2023-05-18T13:56:36.784Z,53.18
2023-05-18T13:59:04.539Z,54.32
2023-05-18T14:01:32.641Z,54.48
2023-05-18T14:04:01.672Z,54.26
2023-05-18T14:06:29.472Z,53.39
2023-05-18T14:08:57.121Z,53.90
2023-05-18T14:11:24.764Z,52.97
2023-05-18T14:13:52.400Z,53.07
2023-05-18T14:16:20.095Z,54.84
2023-05-18T14:18:47.741Z,54.55
2023-05-18T14:21:16.953Z,54.94
2023-05-18T14:23:44.564Z,54.83
2023-05-18T14:26:12.203Z,54.69
2023-05-18T14:28:39.853Z,54.33
2023-05-18T14:31:07.541Z,55.79
2023-05-18T14:33:35.290Z,57.28
2023-05-18T14:36:03.103Z,56.04
2023-05-18T14:38:32.172Z,56.46
2023-05-18T14:40:59.829Z,56.05
2023-05-18T14:43:27.468Z,56.48
2023-05-18T14:46:07.249Z,55.75
2023-05-18T14:48:36.377Z,56.54
2023-05-18T14:51:04.353Z,56.34
2023-05-18T14:53:33.333Z,56.85
2023-05-18T14:56:04.615Z,57.14
2023-05-18T14:58:32.423Z,55.49
2023-05-18T15:01:00.077Z,55.43
2023-05-18T15:03:28.417Z,55.30
2023-05-18T15:05:56.343Z,56.46
2023-05-18T15:08:24.130Z,55.97
2023-05-18T15:10:53.954Z,55.52
2023-05-18T15:13:21.913Z,56.27
2023-05-18T15:15:50.124Z,56.21
2023-05-18T15:18:18.487Z,56.98
2023-05-18T15:20:46.764Z,57.59
2023-05-18T15:23:14.686Z,58.25
2023-05-18T15:25:42.445Z,57.43
2023-05-18T15:28:12.679Z,56.33
2023-05-18T15:30:40.461Z,56.99
2023-05-18T15:33:08.253Z,55.72
2023-05-18T15:35:36.375Z,57.27
2023-05-18T15:38:04.144Z,57.26
2023-05-18T15:40:31.968Z,57.71
2023-05-18T15:42:59.933Z,57.10
2023-05-18T15:45:29.080Z,57.63
2023-05-18T15:47:56.923Z,59.66
2023-05-18T15:50:24.656Z,58.20
2023-05-18T15:52:52.889Z,58.87
2023-05-18T15:55:20.942Z,58.66
2023-05-18T15:57:48.604Z,58.76
2023-05-18T16:00:16.940Z,58.17
2023-05-18T16:02:46.213Z,58.87
2023-05-18T16:05:14.128Z,57.97
2023-05-18T16:07:42.258Z,58.71
2023-05-18T16:10:10.358Z,59.34
2023-05-18T16:12:38.101Z,60.23
2023-05-18T16:15:06.722Z,59.89
2023-05-18T16:17:34.437Z,60.93
2023-05-18T16:20:04.113Z,60.39
2023-05-18T16:22:31.974Z,60.81
2023-05-18T16:24:59.799Z,60.15
2023-05-18T16:27:27.578Z,60.65
2023-05-18T16:29:55.265Z,61.22
2023-05-18T16:32:24.539Z,60.82
2023-05-18T16:34:52.794Z,60.62
2023-05-18T16:37:21.957Z,61.01
2023-05-18T16:39:49.635Z,60.87
2023-05-18T16:42:18.460Z,60.88
2023-05-18T16:44:46.107Z,61.11
2023-05-18T16:47:14.060Z,61.17
2023-05-18T16:49:43.973Z,61.48
2023-05-18T16:52:12.113Z,61.48
2023-05-18T16:54:41.103Z,61.37
2023-05-18T16:57:13.003Z,62.07
2023-05-18T16:59:40.715Z,61.74
2023-05-18T17:02:10.307Z,62.81
2023-05-18T17:04:40.600Z,62.52
2023-05-18T17:07:09.911Z,62.79
2023-05-18T17:09:40.106Z,61.84
2023-05-18T17:12:10.302Z,62.17
2023-05-18T17:14:38.739Z,62.40
2023-05-18T17:17:07.065Z,62.84
2023-05-18T17:19:35.705Z,63.04
2023-05-18T17:22:03.571Z,63.65
2023-05-18T17:24:31.524Z,63.28
2023-05-18T17:26:59.210Z,63.34
2023-05-18T17:29:29.192Z,63.32
2023-05-18T17:31:57.098Z,63.14
2023-05-18T17:34:26.631Z,64.10
2023-05-18T17:36:54.922Z,63.76
2023-05-18T17:39:22.707Z,64.48
2023-05-18T17:41:51.496Z,64.11
2023-05-18T17:44:19.580Z,64.85
2023-05-18T17:46:48.946Z,64.71
2023-05-18T17:49:16.821Z,64.46
2023-05-18T17:51:44.749Z,64.25
2023-05-18T17:54:12.906Z,64.54
2023-05-18T17:56:40.835Z,65.46
2023-05-18T17:59:08.699Z,64.58
2023-05-18T18:01:36.771Z,64.82
2023-05-18T18:04:06.423Z,65.19
2023-05-18T18:06:36.068Z,65.48
2023-05-18T18:09:04.853Z,65.36
2023-05-18T18:11:32.844Z,65.24
2023-05-18T18:14:02.115Z,65.19
2023-05-18T18:16:30.049Z,65.19
2023-05-18T18:18:58.267Z,65.29
2023-05-18T18:21:27.386Z,65.88
2023-05-18T18:23:55.018Z,66.12
2023-05-18T18:26:22.859Z,66.36
2023-05-18T18:28:51.181Z,66.31
2023-05-18T18:31:20.816Z,66.54
2023-05-18T18:33:50.316Z,66.50
2023-05-18T18:36:18.615Z,66.20
2023-05-18T18:38:47.748Z,66.53
2023-05-18T18:41:17.292Z,66.78
2023-05-18T18:43:45.640Z,66.64
2023-05-18T18:46:13.729Z,66.79
2023-05-18T18:48:41.736Z,67.00
2023-05-18T18:51:09.359Z,67.01
2023-05-18T18:53:37.127Z,67.35
2023-05-18T18:56:06.409Z,67.47
2023-05-18T18:58:34.069Z,67.78
2023-05-18T19:01:01.677Z,67.79
2023-05-18T19:03:29.431Z,67.85
2023-05-18T19:05:57.061Z,68.00
2023-05-18T19:08:24.750Z,68.12
2023-05-18T19:10:52.443Z,68.11
2023-05-18T19:13:21.705Z,68.03
2023-05-18T19:15:50.332Z,67.78
2023-05-18T19:18:18.079Z,68.04
2023-05-18T19:20:45.723Z,68.24
2023-05-18T19:23:13.373Z,68.58
2023-05-18T19:25:41.172Z,68.80
2023-05-18T19:28:08.806Z,68.75
2023-05-18T19:30:37.775Z,68.45
2023-05-18T19:33:05.512Z,68.35
2023-05-18T19:35:33.538Z,68.76
2023-05-18T19:38:02.158Z,69.27
2023-05-18T19:40:30.088Z,69.45
2023-05-18T19:42:59.633Z,69.11
2023-05-18T19:45:27.407Z,68.80
2023-05-18T19:47:56.532Z,68.77
2023-05-18T19:50:24.644Z,69.01
2023-05-18T19:52:52.310Z,68.67
2023-05-18T19:55:21.148Z,68.88
2023-05-18T19:57:49.007Z,68.74
2023-05-18T20:00:17.325Z,68.86
2023-05-18T20:02:45.043Z,69.09
2023-05-18T20:05:18.753Z,68.81
2023-05-18T20:07:46.727Z,69.04
2023-05-18T20:10:14.405Z,69.44
2023-05-18T20:12:42.044Z,69.69
2023-05-18T20:15:10.321Z,69.68
2023-05-18T20:17:38.095Z,69.87
2023-05-18T20:20:06.291Z,69.91
2023-05-18T20:22:35.370Z,70.16
2023-05-18T20:25:05.376Z,70.38
2023-05-18T20:27:33.108Z,70.78
2023-05-18T20:30:00.880Z,70.90
2023-05-18T20:32:28.882Z,71.19
2023-05-18T20:34:56.567Z,71.42
2023-05-18T20:37:26.086Z,71.55
2023-05-18T20:39:57.296Z,71.30
2023-05-18T20:42:31.068Z,71.48
2023-05-18T20:44:59.050Z,71.99
2023-05-18T20:47:26.714Z,71.65
2023-05-18T20:49:54.488Z,71.89
2023-05-18T20:52:22.126Z,71.66
2023-05-18T20:54:49.982Z,71.67
2023-05-18T20:57:18.998Z,71.61
2023-05-18T20:59:47.350Z,71.35
2023-05-18T21:02:16.882Z,71.50
2023-05-18T21:04:44.642Z,71.63
2023-05-18T21:07:12.254Z,71.84
2023-05-18T21:09:40.081Z,71.58
2023-05-18T21:12:08.315Z,71.72
2023-05-18T21:14:37.432Z,71.21
2023-05-18T21:17:06.345Z,71.07
2023-05-18T21:19:34.012Z,71.52
2023-05-18T21:22:01.874Z,71.43
2023-05-18T21:24:29.800Z,71.50
2023-05-18T21:26:57.566Z,71.14
2023-05-18T21:29:25.200Z,71.26
2023-05-18T21:31:54.225Z,71.44
2023-05-18T21:34:21.903Z,71.42
2023-05-18T21:36:49.798Z,71.61
2023-05-18T21:39:17.429Z,71.54
2023-05-18T21:41:45.274Z,71.99
2023-05-18T21:44:12.924Z,71.80
2023-05-18T21:46:40.962Z,71.11
2023-05-18T21:49:09.991Z,70.96
2023-05-18T21:51:37.762Z,71.11
2023-05-18T21:54:05.509Z,71.17
2023-05-18T21:56:34.602Z,70.06
2023-05-18T21:59:02.265Z,69.89
2023-05-18T22:01:30.082Z,69.85
2023-05-18T22:03:57.827Z,70.16
2023-05-18T22:06:26.974Z,69.90
2023-05-18T22:08:54.611Z,70.14
2023-05-18T22:11:22.885Z,70.17
2023-05-18T22:13:50.854Z,70.05
2023-05-18T22:16:18.683Z,69.98
2023-05-18T22:18:46.486Z,70.23
2023-05-18T22:21:14.214Z,69.89
2023-05-18T22:23:43.342Z,70.14
2023-05-18T22:26:12.106Z,70.03
2023-05-18T22:28:40.173Z,70.29
2023-05-18T22:31:07.792Z,70.27
2023-05-18T22:33:35.416Z,70.54
2023-05-18T22:36:03.222Z,70.35
2023-05-18T22:38:30.982Z,70.62
2023-05-18T22:40:59.926Z,70.87
2023-05-18T22:43:29.093Z,70.60
2023-05-18T22:45:56.762Z,70.95
2023-05-18T22:48:25.375Z,71.31
2023-05-18T22:50:53.044Z,71.38
2023-05-18T22:53:20.717Z,71.45
2023-05-18T22:55:48.388Z,71.78
2023-05-18T22:58:17.781Z,71.69
2023-05-18T23:00:45.408Z,71.71
2023-05-18T23:03:13.301Z,71.47
2023-05-18T23:05:41.508Z,71.60
2023-05-18T23:08:09.488Z,71.53
2023-05-18T23:10:37.585Z,71.95
2023-05-18T23:13:05.251Z,71.61
2023-05-18T23:15:34.317Z,71.95
2023-05-18T23:18:02.030Z,71.57
2023-05-18T23:20:34.430Z,71.42
2023-05-18T23:23:02.154Z,71.61
2023-05-18T23:25:30.258Z,71.55
2023-05-18T23:27:57.928Z,71.76
2023-05-18T23:30:26.034Z,71.63
2023-05-18T23:32:56.443Z,71.32
2023-05-18T23:35:24.833Z,71.67
2023-05-18T23:37:54.878Z,72.36
2023-05-18T23:40:23.545Z,72.22
2023-05-18T23:42:51.979Z,72.58
2023-05-18T23:45:20.366Z,72.55
2023-05-18T23:47:48.750Z,72.29
2023-05-18T23:50:18.632Z,72.74
2023-05-18T23:52:47.784Z,72.78
2023-05-18T23:55:16.077Z,73.11
2023-05-18T23:57:44.636Z,73.05
